sensor_id;sensor_type;location;lat;lon;timestamp;P1;durP1;ratioP1;P2;durP2;ratioP2
10452;SDS011;5274;51.992;8.518;2023-03-04T00:01:12;38.83;;;18.67;;
10452;SDS011;5274;51.992;8.518;2023-03-04T00:03:38;24.57;;;16.60;;
10452;SDS011;5274;51.992;8.518;2023-03-04T00:06:04;26.07;;;17.20;;
10452;SDS011;5274;51.992;8.518;2023-03-04T00:08:31;29.93;;;17.57;;
10452;SDS011;5274;51.992;8.518;2023-03-04T00:10:57;28.40;;;17.50;;
10452;SDS011;5274;51.992;8.518;2023-03-04T00:13:23;32.63;;;18.80;;
10452;SDS011;5274;51.992;8.518;2023-03-04T00:15:49;28.33;;;16.97;;
10452;SDS011;5274;51.992;8.518;2023-03-04T00:18:15;31.50;;;16.47;;
10452;SDS011;5274;51.992;8.518;2023-03-04T00:20:41;31.03;;;17.37;;
10452;SDS011;5274;51.992;8.518;2023-03-04T00:23:07;23.23;;;16.13;;
10452;SDS011;5274;51.992;8.518;2023-03-04T00:25:33;32.23;;;16.93;;
10452;SDS011;5274;51.992;8.518;2023-03-04T00:27:59;28.27;;;16.80;;
10452;SDS011;5274;51.992;8.518;2023-03-04T00:30:25;32.37;;;17.03;;
10452;SDS011;5274;51.992;8.518;2023-03-04T00:32:51;22.30;;;15.40;;
10452;SDS011;5274;51.992;8.518;2023-03-04T00:35:17;23.90;;;15.43;;
10452;SDS011;5274;51.992;8.518;2023-03-04T00:37:43;21.20;;;12.97;;
10452;SDS011;5274;51.992;8.518;2023-03-04T00:40:09;19.77;;;13.00;;
10452;SDS011;5274;51.992;8.518;2023-03-04T00:42:35;24.33;;;11.53;;
10452;SDS011;5274;51.992;8.518;2023-03-04T00:45:01;27.77;;;12.90;;
10452;SDS011;5274;51.992;8.518;2023-03-04T00:47:27;22.73;;;11.83;;
10452;SDS011;5274;51.992;8.518;2023-03-04T00:49:53;15.60;;;11.73;;
10452;SDS011;5274;51.992;8.518;2023-03-04T00:52:19;21.17;;;12.40;;
10452;SDS011;5274;51.992;8.518;2023-03-04T00:54:45;23.70;;;11.07;;
10452;SDS011;5274;51.992;8.518;2023-03-04T00:57:11;15.80;;;10.47;;
10452;SDS011;5274;51.992;8.518;2023-03-04T00:59:37;16.93;;;10.73;;
10452;SDS011;5274;51.992;8.518;2023-03-04T01:02:03;25.17;;;10.30;;
10452;SDS011;5274;51.992;8.518;2023-03-04T01:04:28;12.17;;;10.07;;
10452;SDS011;5274;51.992;8.518;2023-03-04T01:06:54;19.00;;;8.97;;
10452;SDS011;5274;51.992;8.518;2023-03-04T01:09:20;22.87;;;10.10;;
10452;SDS011;5274;51.992;8.518;2023-03-04T01:11:46;16.97;;;10.50;;
10452;SDS011;5274;51.992;8.518;2023-03-04T01:14:12;21.03;;;10.67;;
10452;SDS011;5274;51.992;8.518;2023-03-04T01:16:38;15.63;;;10.40;;
10452;SDS011;5274;51.992;8.518;2023-03-04T01:19:04;11.33;;;10.17;;
10452;SDS011;5274;51.992;8.518;2023-03-04T01:21:30;15.63;;;11.67;;
10452;SDS011;5274;51.992;8.518;2023-03-04T01:23:56;16.87;;;12.27;;
10452;SDS011;5274;51.992;8.518;2023-03-04T01:26:22;17.83;;;11.50;;
10452;SDS011;5274;51.992;8.518;2023-03-04T01:28:48;14.90;;;11.87;;
10452;SDS011;5274;51.992;8.518;2023-03-04T01:31:14;16.57;;;10.87;;
10452;SDS011;5274;51.992;8.518;2023-03-04T01:33:39;15.17;;;12.60;;
10452;SDS011;5274;51.992;8.518;2023-03-04T01:36:05;19.77;;;11.50;;
10452;SDS011;5274;51.992;8.518;2023-03-04T01:38:31;18.07;;;11.40;;
10452;SDS011;5274;51.992;8.518;2023-03-04T01:40:57;23.23;;;11.60;;
10452;SDS011;5274;51.992;8.518;2023-03-04T01:43:24;16.13;;;11.20;;
10452;SDS011;5274;51.992;8.518;2023-03-04T01:45:52;18.83;;;11.20;;
10452;SDS011;5274;51.992;8.518;2023-03-04T01:48:21;11.47;;;10.13;;
10452;SDS011;5274;51.992;8.518;2023-03-04T01:50:49;17.27;;;10.47;;
10452;SDS011;5274;51.992;8.518;2023-03-04T01:53:22;14.63;;;11.60;;
10452;SDS011;5274;51.992;8.518;2023-03-04T01:55:48;17.43;;;11.13;;
10452;SDS011;5274;51.992;8.518;2023-03-04T01:58:14;16.57;;;11.37;;
10452;SDS011;5274;51.992;8.518;2023-03-04T02:00:40;15.60;;;9.63;;
10452;SDS011;5274;51.992;8.518;2023-03-04T02:03:07;16.23;;;10.33;;
10452;SDS011;5274;51.992;8.518;2023-03-04T02:05:36;18.13;;;10.53;;
10452;SDS011;5274;51.992;8.518;2023-03-04T02:08:02;15.37;;;10.67;;
10452;SDS011;5274;51.992;8.518;2023-03-04T02:10:29;16.97;;;11.03;;
10452;SDS011;5274;51.992;8.518;2023-03-04T02:12:55;22.47;;;10.50;;
10452;SDS011;5274;51.992;8.518;2023-03-04T02:15:21;20.03;;;10.97;;
10452;SDS011;5274;51.992;8.518;2023-03-04T02:17:47;17.20;;;9.70;;
10452;SDS011;5274;51.992;8.518;2023-03-04T02:20:17;14.10;;;10.63;;
10452;SDS011;5274;51.992;8.518;2023-03-04T02:22:57;16.27;;;9.80;;
10452;SDS011;5274;51.992;8.518;2023-03-04T02:25:37;19.17;;;10.83;;
10452;SDS011;5274;51.992;8.518;2023-03-04T02:28:04;17.37;;;9.90;;
10452;SDS011;5274;51.992;8.518;2023-03-04T02:30:30;17.33;;;10.33;;
10452;SDS011;5274;51.992;8.518;2023-03-04T02:32:56;17.13;;;10.37;;
10452;SDS011;5274;51.992;8.518;2023-03-04T02:35:22;15.30;;;10.50;;
10452;SDS011;5274;51.992;8.518;2023-03-04T02:37:48;13.07;;;9.90;;
10452;SDS011;5274;51.992;8.518;2023-03-04T02:40:32;10.30;;;8.40;;
10452;SDS011;5274;51.992;8.518;2023-03-04T02:42:59;14.03;;;9.70;;
10452;SDS011;5274;51.992;8.518;2023-03-04T02:48:10;14.23;;;8.50;;
10452;SDS011;5274;51.992;8.518;2023-03-04T02:50:39;14.73;;;8.87;;
10452;SDS011;5274;51.992;8.518;2023-03-04T02:53:05;17.43;;;9.50;;
10452;SDS011;5274;51.992;8.518;2023-03-04T02:55:31;22.43;;;10.03;;
10452;SDS011;5274;51.992;8.518;2023-03-04T02:57:58;15.97;;;8.73;;
10452;SDS011;5274;51.992;8.518;2023-03-04T03:00:24;17.30;;;9.20;;
10452;SDS011;5274;51.992;8.518;2023-03-04T03:02:50;17.50;;;8.40;;
10452;SDS011;5274;51.992;8.518;2023-03-04T03:05:16;15.83;;;8.37;;
10452;SDS011;5274;51.992;8.518;2023-03-04T03:07:42;13.43;;;8.40;;
10452;SDS011;5274;51.992;8.518;2023-03-04T03:10:08;15.53;;;8.63;;
10452;SDS011;5274;51.992;8.518;2023-03-04T03:12:34;9.87;;;8.40;;
10452;SDS011;5274;51.992;8.518;2023-03-04T03:15:00;10.57;;;9.50;;
10452;SDS011;5274;51.992;8.518;2023-03-04T03:17:26;13.23;;;9.80;;
10452;SDS011;5274;51.992;8.518;2023-03-04T03:19:52;9.97;;;9.07;;
10452;SDS011;5274;51.992;8.518;2023-03-04T03:22:18;11.60;;;10.50;;
10452;SDS011;5274;51.992;8.518;2023-03-04T03:24:44;12.30;;;10.67;;
10452;SDS011;5274;51.992;8.518;2023-03-04T03:27:10;12.43;;;11.23;;
10452;SDS011;5274;51.992;8.518;2023-03-04T03:29:36;13.23;;;10.07;;
10452;SDS011;5274;51.992;8.518;2023-03-04T03:32:02;12.30;;;10.63;;
10452;SDS011;5274;51.992;8.518;2023-03-04T03:34:28;11.50;;;9.97;;
10452;SDS011;5274;51.992;8.518;2023-03-04T03:36:54;11.97;;;9.70;;
10452;SDS011;5274;51.992;8.518;2023-03-04T03:39:20;14.27;;;10.73;;
10452;SDS011;5274;51.992;8.518;2023-03-04T03:41:46;15.20;;;10.03;;
10452;SDS011;5274;51.992;8.518;2023-03-04T03:44:12;11.20;;;9.07;;
10452;SDS011;5274;51.992;8.518;2023-03-04T03:46:38;11.57;;;10.40;;
10452;SDS011;5274;51.992;8.518;2023-03-04T03:49:04;15.03;;;10.80;;
10452;SDS011;5274;51.992;8.518;2023-03-04T03:51:30;18.60;;;11.80;;
10452;SDS011;5274;51.992;8.518;2023-03-04T03:53:56;13.87;;;10.53;;
10452;SDS011;5274;51.992;8.518;2023-03-04T03:56:21;12.80;;;11.90;;
10452;SDS011;5274;51.992;8.518;2023-03-04T03:58:47;13.93;;;12.63;;
10452;SDS011;5274;51.992;8.518;2023-03-04T04:01:13;14.43;;;12.07;;
10452;SDS011;5274;51.992;8.518;2023-03-04T04:03:39;14.23;;;11.00;;
10452;SDS011;5274;51.992;8.518;2023-03-04T04:06:05;15.90;;;10.90;;
10452;SDS011;5274;51.992;8.518;2023-03-04T04:08:31;12.40;;;9.70;;
10452;SDS011;5274;51.992;8.518;2023-03-04T04:10:57;13.73;;;8.40;;
10452;SDS011;5274;51.992;8.518;2023-03-04T04:13:23;11.93;;;7.83;;
10452;SDS011;5274;51.992;8.518;2023-03-04T04:15:52;11.17;;;7.67;;
10452;SDS011;5274;51.992;8.518;2023-03-04T04:18:18;9.93;;;7.20;;
10452;SDS011;5274;51.992;8.518;2023-03-04T04:20:45;18.90;;;8.33;;
10452;SDS011;5274;51.992;8.518;2023-03-04T04:23:11;11.00;;;8.20;;
10452;SDS011;5274;51.992;8.518;2023-03-04T04:25:37;15.50;;;8.70;;
10452;SDS011;5274;51.992;8.518;2023-03-04T04:28:03;13.07;;;6.97;;
10452;SDS011;5274;51.992;8.518;2023-03-04T04:30:29;11.20;;;7.07;;
10452;SDS011;5274;51.992;8.518;2023-03-04T04:32:54;18.23;;;6.90;;
10452;SDS011;5274;51.992;8.518;2023-03-04T04:35:20;11.80;;;6.30;;
10452;SDS011;5274;51.992;8.518;2023-03-04T04:37:46;11.00;;;6.57;;
10452;SDS011;5274;51.992;8.518;2023-03-04T04:40:12;13.57;;;6.60;;
10452;SDS011;5274;51.992;8.518;2023-03-04T04:42:38;13.47;;;7.17;;
10452;SDS011;5274;51.992;8.518;2023-03-04T04:45:05;10.10;;;6.70;;
10452;SDS011;5274;51.992;8.518;2023-03-04T04:47:31;17.97;;;6.77;;
10452;SDS011;5274;51.992;8.518;2023-03-04T04:49:56;11.27;;;6.40;;
10452;SDS011;5274;51.992;8.518;2023-03-04T04:52:22;9.70;;;6.50;;
10452;SDS011;5274;51.992;8.518;2023-03-04T04:54:48;14.70;;;6.37;;
10452;SDS011;5274;51.992;8.518;2023-03-04T04:57:14;16.53;;;7.13;;
10452;SDS011;5274;51.992;8.518;2023-03-04T04:59:40;9.47;;;7.03;;
10452;SDS011;5274;51.992;8.518;2023-03-04T05:02:06;16.57;;;7.13;;
10452;SDS011;5274;51.992;8.518;2023-03-04T05:04:32;18.00;;;11.90;;
10452;SDS011;5274;51.992;8.518;2023-03-04T05:06:58;17.63;;;12.30;;
10452;SDS011;5274;51.992;8.518;2023-03-04T05:09:24;17.73;;;12.60;;
10452;SDS011;5274;51.992;8.518;2023-03-04T05:11:50;17.47;;;13.10;;
10452;SDS011;5274;51.992;8.518;2023-03-04T05:14:15;14.80;;;13.33;;
10452;SDS011;5274;51.992;8.518;2023-03-04T05:16:41;14.87;;;13.50;;
10452;SDS011;5274;51.992;8.518;2023-03-04T05:19:07;18.90;;;14.17;;
10452;SDS011;5274;51.992;8.518;2023-03-04T05:21:33;13.90;;;12.80;;
10452;SDS011;5274;51.992;8.518;2023-03-04T05:23:59;15.27;;;12.37;;
10452;SDS011;5274;51.992;8.518;2023-03-04T05:26:25;19.53;;;12.53;;
10452;SDS011;5274;51.992;8.518;2023-03-04T05:28:51;20.27;;;12.70;;
10452;SDS011;5274;51.992;8.518;2023-03-04T05:31:17;13.57;;;12.23;;
10452;SDS011;5274;51.992;8.518;2023-03-04T05:33:43;17.70;;;11.90;;
10452;SDS011;5274;51.992;8.518;2023-03-04T05:36:09;14.50;;;11.13;;
10452;SDS011;5274;51.992;8.518;2023-03-04T05:38:35;12.00;;;10.77;;
10452;SDS011;5274;51.992;8.518;2023-03-04T05:41:02;12.17;;;10.93;;
10452;SDS011;5274;51.992;8.518;2023-03-04T05:43:29;13.07;;;11.50;;
10452;SDS011;5274;51.992;8.518;2023-03-04T05:45:55;11.53;;;10.37;;
10452;SDS011;5274;51.992;8.518;2023-03-04T05:48:21;12.87;;;11.83;;
10452;SDS011;5274;51.992;8.518;2023-03-04T05:50:58;17.63;;;11.70;;
10452;SDS011;5274;51.992;8.518;2023-03-04T05:53:24;16.27;;;9.07;;
10452;SDS011;5274;51.992;8.518;2023-03-04T05:55:50;12.67;;;8.13;;
10452;SDS011;5274;51.992;8.518;2023-03-04T05:58:17;15.63;;;7.03;;
10452;SDS011;5274;51.992;8.518;2023-03-04T06:00:43;11.83;;;5.43;;
10452;SDS011;5274;51.992;8.518;2023-03-04T06:03:14;8.83;;;5.40;;
10452;SDS011;5274;51.992;8.518;2023-03-04T06:05:40;12.33;;;5.40;;
10452;SDS011;5274;51.992;8.518;2023-03-04T06:08:06;7.67;;;4.40;;
10452;SDS011;5274;51.992;8.518;2023-03-04T06:10:32;6.00;;;4.03;;
10452;SDS011;5274;51.992;8.518;2023-03-04T06:12:58;8.20;;;4.60;;
10452;SDS011;5274;51.992;8.518;2023-03-04T06:15:24;14.17;;;4.50;;
10452;SDS011;5274;51.992;8.518;2023-03-04T06:17:49;7.67;;;4.40;;
10452;SDS011;5274;51.992;8.518;2023-03-04T06:20:15;9.83;;;4.57;;
10452;SDS011;5274;51.992;8.518;2023-03-04T06:22:41;4.77;;;3.90;;
10452;SDS011;5274;51.992;8.518;2023-03-04T06:25:07;12.43;;;4.30;;
10452;SDS011;5274;51.992;8.518;2023-03-04T06:27:33;9.43;;;4.60;;
10452;SDS011;5274;51.992;8.518;2023-03-04T06:29:59;13.77;;;5.20;;
10452;SDS011;5274;51.992;8.518;2023-03-04T06:32:26;11.33;;;5.07;;
10452;SDS011;5274;51.992;8.518;2023-03-04T06:34:52;16.07;;;4.77;;
10452;SDS011;5274;51.992;8.518;2023-03-04T06:37:18;8.47;;;4.07;;
10452;SDS011;5274;51.992;8.518;2023-03-04T06:39:44;14.37;;;6.07;;
10452;SDS011;5274;51.992;8.518;2023-03-04T06:42:10;9.73;;;4.73;;
10452;SDS011;5274;51.992;8.518;2023-03-04T06:44:36;15.43;;;4.23;;
10452;SDS011;5274;51.992;8.518;2023-03-04T06:47:02;9.17;;;3.83;;
10452;SDS011;5274;51.992;8.518;2023-03-04T06:49:28;10.10;;;4.33;;
10452;SDS011;5274;51.992;8.518;2023-03-04T06:51:54;16.77;;;4.37;;
10452;SDS011;5274;51.992;8.518;2023-03-04T06:54:20;10.37;;;4.03;;
10452;SDS011;5274;51.992;8.518;2023-03-04T06:56:46;8.03;;;3.57;;
10452;SDS011;5274;51.992;8.518;2023-03-04T06:59:12;9.53;;;3.50;;
10452;SDS011;5274;51.992;8.518;2023-03-04T07:01:38;11.83;;;3.97;;
10452;SDS011;5274;51.992;8.518;2023-03-04T07:04:04;9.47;;;3.50;;
10452;SDS011;5274;51.992;8.518;2023-03-04T07:06:30;5.67;;;3.70;;
10452;SDS011;5274;51.992;8.518;2023-03-04T07:08:57;11.80;;;3.50;;
10452;SDS011;5274;51.992;8.518;2023-03-04T07:11:23;6.73;;;3.60;;
10452;SDS011;5274;51.992;8.518;2023-03-04T07:13:49;12.73;;;3.93;;
10452;SDS011;5274;51.992;8.518;2023-03-04T07:16:16;10.83;;;4.10;;
10452;SDS011;5274;51.992;8.518;2023-03-04T07:18:43;8.43;;;3.63;;
10452;SDS011;5274;51.992;8.518;2023-03-04T07:21:09;18.03;;;3.80;;
10452;SDS011;5274;51.992;8.518;2023-03-04T07:23:36;9.60;;;3.60;;
10452;SDS011;5274;51.992;8.518;2023-03-04T07:26:02;13.27;;;3.70;;
10452;SDS011;5274;51.992;8.518;2023-03-04T07:28:28;11.43;;;3.47;;
10452;SDS011;5274;51.992;8.518;2023-03-04T07:30:54;9.10;;;3.70;;
10452;SDS011;5274;51.992;8.518;2023-03-04T07:33:20;11.67;;;3.60;;
10452;SDS011;5274;51.992;8.518;2023-03-04T07:35:46;13.33;;;3.43;;
10452;SDS011;5274;51.992;8.518;2023-03-04T07:38:11;10.03;;;3.50;;
10452;SDS011;5274;51.992;8.518;2023-03-04T07:40:37;7.17;;;3.00;;
10452;SDS011;5274;51.992;8.518;2023-03-04T07:43:03;9.17;;;3.27;;
10452;SDS011;5274;51.992;8.518;2023-03-04T07:45:29;7.00;;;3.53;;
10452;SDS011;5274;51.992;8.518;2023-03-04T07:47:58;11.43;;;3.57;;
10452;SDS011;5274;51.992;8.518;2023-03-04T07:50:25;10.17;;;3.70;;
10452;SDS011;5274;51.992;8.518;2023-03-04T07:52:50;8.90;;;3.60;;
10452;SDS011;5274;51.992;8.518;2023-03-04T07:55:17;7.70;;;3.70;;
10452;SDS011;5274;51.992;8.518;2023-03-04T07:57:44;10.80;;;4.20;;
10452;SDS011;5274;51.992;8.518;2023-03-04T08:00:11;12.13;;;3.93;;
10452;SDS011;5274;51.992;8.518;2023-03-04T08:02:38;8.57;;;3.30;;
10452;SDS011;5274;51.992;8.518;2023-03-04T08:05:04;12.53;;;3.73;;
10452;SDS011;5274;51.992;8.518;2023-03-04T08:07:30;12.43;;;3.60;;
10452;SDS011;5274;51.992;8.518;2023-03-04T08:09:55;10.20;;;3.40;;
10452;SDS011;5274;51.992;8.518;2023-03-04T08:12:21;7.17;;;3.03;;
10452;SDS011;5274;51.992;8.518;2023-03-04T08:14:50;11.07;;;3.90;;
10452;SDS011;5274;51.992;8.518;2023-03-04T08:17:16;13.43;;;3.30;;
10452;SDS011;5274;51.992;8.518;2023-03-04T08:19:42;8.30;;;3.37;;
10452;SDS011;5274;51.992;8.518;2023-03-04T08:22:08;7.30;;;3.63;;
10452;SDS011;5274;51.992;8.518;2023-03-04T08:24:34;13.83;;;3.47;;
10452;SDS011;5274;51.992;8.518;2023-03-04T08:27:00;11.10;;;3.83;;
10452;SDS011;5274;51.992;8.518;2023-03-04T08:29:26;10.70;;;3.40;;
10452;SDS011;5274;51.992;8.518;2023-03-04T08:31:53;6.83;;;3.23;;
10452;SDS011;5274;51.992;8.518;2023-03-04T08:34:19;6.33;;;3.20;;
10452;SDS011;5274;51.992;8.518;2023-03-04T08:36:46;11.93;;;3.03;;
10452;SDS011;5274;51.992;8.518;2023-03-04T08:39:12;7.50;;;3.43;;
10452;SDS011;5274;51.992;8.518;2023-03-04T08:41:38;11.13;;;3.37;;
10452;SDS011;5274;51.992;8.518;2023-03-04T08:44:04;16.07;;;3.43;;
10452;SDS011;5274;51.992;8.518;2023-03-04T08:46:32;13.40;;;3.70;;
10452;SDS011;5274;51.992;8.518;2023-03-04T08:48:58;8.47;;;3.57;;
10452;SDS011;5274;51.992;8.518;2023-03-04T08:51:24;13.03;;;3.80;;
10452;SDS011;5274;51.992;8.518;2023-03-04T08:53:50;10.97;;;4.23;;
10452;SDS011;5274;51.992;8.518;2023-03-04T08:56:16;6.67;;;3.67;;
10452;SDS011;5274;51.992;8.518;2023-03-04T08:58:42;10.97;;;3.83;;
10452;SDS011;5274;51.992;8.518;2023-03-04T09:01:08;8.83;;;3.50;;
10452;SDS011;5274;51.992;8.518;2023-03-04T09:03:35;12.10;;;3.73;;
10452;SDS011;5274;51.992;8.518;2023-03-04T09:06:01;9.67;;;3.20;;
10452;SDS011;5274;51.992;8.518;2023-03-04T09:08:28;12.00;;;4.10;;
10452;SDS011;5274;51.992;8.518;2023-03-04T09:10:54;10.57;;;3.33;;
10452;SDS011;5274;51.992;8.518;2023-03-04T09:13:20;8.60;;;3.20;;
10452;SDS011;5274;51.992;8.518;2023-03-04T09:15:50;7.53;;;4.17;;
10452;SDS011;5274;51.992;8.518;2023-03-04T09:18:16;8.20;;;3.47;;
10452;SDS011;5274;51.992;8.518;2023-03-04T09:20:43;12.40;;;3.77;;
10452;SDS011;5274;51.992;8.518;2023-03-04T09:23:09;12.50;;;3.40;;
10452;SDS011;5274;51.992;8.518;2023-03-04T09:25:35;10.03;;;3.67;;
10452;SDS011;5274;51.992;8.518;2023-03-04T09:28:02;12.27;;;3.90;;
10452;SDS011;5274;51.992;8.518;2023-03-04T09:30:28;8.00;;;3.50;;
10452;SDS011;5274;51.992;8.518;2023-03-04T09:32:54;19.63;;;4.60;;
10452;SDS011;5274;51.992;8.518;2023-03-04T09:35:21;11.43;;;3.93;;
10452;SDS011;5274;51.992;8.518;2023-03-04T09:37:47;7.90;;;3.60;;
10452;SDS011;5274;51.992;8.518;2023-03-04T09:40:27;11.70;;;3.80;;
10452;SDS011;5274;51.992;8.518;2023-03-04T09:42:54;13.67;;;3.87;;
10452;SDS011;5274;51.992;8.518;2023-03-04T09:45:32;9.87;;;3.90;;
10452;SDS011;5274;51.992;8.518;2023-03-04T09:47:59;8.90;;;3.90;;
10452;SDS011;5274;51.992;8.518;2023-03-04T09:50:25;8.03;;;3.43;;
10452;SDS011;5274;51.992;8.518;2023-03-04T09:53:05;10.40;;;3.07;;
10452;SDS011;5274;51.992;8.518;2023-03-04T09:55:37;6.80;;;3.40;;
10452;SDS011;5274;51.992;8.518;2023-03-04T10:00:39;12.20;;;3.30;;
10452;SDS011;5274;51.992;8.518;2023-03-04T10:08:31;5.87;;;2.90;;
10452;SDS011;5274;51.992;8.518;2023-03-04T10:10:58;8.03;;;3.07;;
10452;SDS011;5274;51.992;8.518;2023-03-04T10:13:28;6.97;;;2.90;;
10452;SDS011;5274;51.992;8.518;2023-03-04T10:15:56;4.83;;;2.80;;
10452;SDS011;5274;51.992;8.518;2023-03-04T10:18:24;11.30;;;3.23;;
10452;SDS011;5274;51.992;8.518;2023-03-04T10:20:56;5.20;;;3.50;;
10452;SDS011;5274;51.992;8.518;2023-03-04T10:23:24;5.27;;;2.83;;
10452;SDS011;5274;51.992;8.518;2023-03-04T10:25:51;6.23;;;3.07;;
10452;SDS011;5274;51.992;8.518;2023-03-04T10:28:28;4.50;;;3.10;;
10452;SDS011;5274;51.992;8.518;2023-03-04T10:33:22;7.83;;;3.07;;
10452;SDS011;5274;51.992;8.518;2023-03-04T10:35:59;4.50;;;3.20;;
10452;SDS011;5274;51.992;8.518;2023-03-04T10:38:25;6.10;;;2.97;;
10452;SDS011;5274;51.992;8.518;2023-03-04T10:40:53;10.97;;;3.57;;
10452;SDS011;5274;51.992;8.518;2023-03-04T10:43:20;5.93;;;3.87;;
10452;SDS011;5274;51.992;8.518;2023-03-04T10:45:46;8.03;;;3.83;;
10452;SDS011;5274;51.992;8.518;2023-03-04T10:48:46;6.40;;;3.70;;
10452;SDS011;5274;51.992;8.518;2023-03-04T10:51:15;8.20;;;3.80;;
10452;SDS011;5274;51.992;8.518;2023-03-04T10:53:42;5.43;;;3.60;;
10452;SDS011;5274;51.992;8.518;2023-03-04T10:58:54;9.43;;;3.80;;
10452;SDS011;5274;51.992;8.518;2023-03-04T11:01:39;7.10;;;4.27;;
10452;SDS011;5274;51.992;8.518;2023-03-04T11:04:13;7.43;;;3.97;;
10452;SDS011;5274;51.992;8.518;2023-03-04T11:06:41;8.40;;;4.13;;
10452;SDS011;5274;51.992;8.518;2023-03-04T11:09:16;9.47;;;4.27;;
10452;SDS011;5274;51.992;8.518;2023-03-04T11:11:43;7.80;;;3.80;;
10452;SDS011;5274;51.992;8.518;2023-03-04T11:16:44;8.57;;;3.80;;
10452;SDS011;5274;51.992;8.518;2023-03-04T11:19:16;6.77;;;3.97;;
10452;SDS011;5274;51.992;8.518;2023-03-04T11:21:42;9.47;;;4.63;;
10452;SDS011;5274;51.992;8.518;2023-03-04T11:24:11;12.57;;;4.47;;
10452;SDS011;5274;51.992;8.518;2023-03-04T11:26:59;4.60;;;4.10;;
10452;SDS011;5274;51.992;8.518;2023-03-04T11:31:54;6.67;;;4.90;;
10452;SDS011;5274;51.992;8.518;2023-03-04T11:36:52;4.70;;;3.70;;
10452;SDS011;5274;51.992;8.518;2023-03-04T11:39:20;10.53;;;4.30;;
10452;SDS011;5274;51.992;8.518;2023-03-04T11:42:00;3.50;;;3.20;;
10452;SDS011;5274;51.992;8.518;2023-03-04T11:44:27;5.47;;;2.80;;
10452;SDS011;5274;51.992;8.518;2023-03-04T11:52:28;6.43;;;3.33;;
10452;SDS011;5274;51.992;8.518;2023-03-04T11:57:46;12.33;;;3.37;;
10452;SDS011;5274;51.992;8.518;2023-03-04T12:03:05;5.80;;;3.53;;
10452;SDS011;5274;51.992;8.518;2023-03-04T12:08:07;6.43;;;5.80;;
10452;SDS011;5274;51.992;8.518;2023-03-04T12:10:40;11.17;;;10.17;;
10452;SDS011;5274;51.992;8.518;2023-03-04T12:13:14;22.27;;;20.70;;
10452;SDS011;5274;51.992;8.518;2023-03-04T12:20:56;26.02;;;24.35;;
10452;SDS011;5274;51.992;8.518;2023-03-04T12:33:50;32.00;;;29.90;;
10452;SDS011;5274;51.992;8.518;2023-03-04T12:36:40;28.58;;;26.60;;
10452;SDS011;5274;51.992;8.518;2023-03-04T12:41:40;31.40;;;29.55;;
10452;SDS011;5274;51.992;8.518;2023-03-04T12:44:12;31.30;;;29.20;;
10452;SDS011;5274;51.992;8.518;2023-03-04T12:51:43;31.17;;;29.27;;
10452;SDS011;5274;51.992;8.518;2023-03-04T12:54:19;43.45;;;39.63;;
10452;SDS011;5274;51.992;8.518;2023-03-04T12:56:55;34.22;;;31.88;;
10452;SDS011;5274;51.992;8.518;2023-03-04T12:59:23;33.90;;;31.20;;
10452;SDS011;5274;51.992;8.518;2023-03-04T13:07:21;27.63;;;25.60;;
10452;SDS011;5274;51.992;8.518;2023-03-04T13:09:57;31.10;;;28.50;;
10452;SDS011;5274;51.992;8.518;2023-03-04T13:12:23;26.93;;;25.23;;
10452;SDS011;5274;51.992;8.518;2023-03-04T13:17:41;20.58;;;19.17;;
10452;SDS011;5274;51.992;8.518;2023-03-04T13:25:48;31.67;;;29.77;;
10452;SDS011;5274;51.992;8.518;2023-03-04T13:32:56;30.17;;;28.40;;
10452;SDS011;5274;51.992;8.518;2023-03-04T13:41:05;27.63;;;25.83;;
10452;SDS011;5274;51.992;8.518;2023-03-04T13:43:40;29.85;;;28.05;;
10452;SDS011;5274;51.992;8.518;2023-03-04T13:51:50;7.23;;;6.57;;
10452;SDS011;5274;51.992;8.518;2023-03-04T13:56:48;5.40;;;4.90;;
10452;SDS011;5274;51.992;8.518;2023-03-04T13:59:37;9.53;;;8.70;;
10452;SDS011;5274;51.992;8.518;2023-03-04T14:02:15;8.93;;;8.23;;
10452;SDS011;5274;51.992;8.518;2023-03-04T14:12:20;21.57;;;14.13;;
10452;SDS011;5274;51.992;8.518;2023-03-04T14:14:47;18.47;;;16.83;;
10452;SDS011;5274;51.992;8.518;2023-03-04T14:17:19;19.40;;;18.20;;
10452;SDS011;5274;51.992;8.518;2023-03-04T14:19:46;23.02;;;21.58;;
10452;SDS011;5274;51.992;8.518;2023-03-04T14:22:37;25.48;;;23.55;;
10452;SDS011;5274;51.992;8.518;2023-03-04T14:27:44;23.07;;;21.37;;
10452;SDS011;5274;51.992;8.518;2023-03-04T14:30:20;23.97;;;22.10;;
10452;SDS011;5274;51.992;8.518;2023-03-04T14:32:47;21.55;;;20.40;;
10452;SDS011;5274;51.992;8.518;2023-03-04T14:35:21;26.10;;;24.52;;
10452;SDS011;5274;51.992;8.518;2023-03-04T14:37:48;26.50;;;24.38;;
10452;SDS011;5274;51.992;8.518;2023-03-04T14:40:19;33.97;;;31.90;;
10452;SDS011;5274;51.992;8.518;2023-03-04T14:42:46;36.00;;;33.75;;
10452;SDS011;5274;51.992;8.518;2023-03-04T14:45:14;30.48;;;28.70;;
10452;SDS011;5274;51.992;8.518;2023-03-04T14:47:41;36.15;;;33.95;;
10452;SDS011;5274;51.992;8.518;2023-03-04T14:50:12;36.35;;;33.80;;
10452;SDS011;5274;51.992;8.518;2023-03-04T14:52:39;34.78;;;32.75;;
10452;SDS011;5274;51.992;8.518;2023-03-04T14:55:25;34.92;;;32.45;;
10452;SDS011;5274;51.992;8.518;2023-03-04T14:57:52;31.08;;;28.95;;
10452;SDS011;5274;51.992;8.518;2023-03-04T15:02:52;33.33;;;31.20;;
10452;SDS011;5274;51.992;8.518;2023-03-04T15:05:31;31.03;;;29.00;;
10452;SDS011;5274;51.992;8.518;2023-03-04T15:07:59;33.80;;;31.53;;
10452;SDS011;5274;51.992;8.518;2023-03-04T15:10:35;33.80;;;31.48;;
10452;SDS011;5274;51.992;8.518;2023-03-04T15:13:03;29.88;;;27.77;;
10452;SDS011;5274;51.992;8.518;2023-03-04T15:17:59;27.63;;;26.03;;
10452;SDS011;5274;51.992;8.518;2023-03-04T15:20:29;25.97;;;24.37;;
10452;SDS011;5274;51.992;8.518;2023-03-04T15:22:56;26.70;;;25.07;;
10452;SDS011;5274;51.992;8.518;2023-03-04T15:25:23;20.20;;;18.80;;
10452;SDS011;5274;51.992;8.518;2023-03-04T15:27:49;19.73;;;18.37;;
10452;SDS011;5274;51.992;8.518;2023-03-04T15:30:17;24.00;;;22.50;;
10452;SDS011;5274;51.992;8.518;2023-03-04T15:32:44;20.67;;;19.40;;
10452;SDS011;5274;51.992;8.518;2023-03-04T15:35:13;21.67;;;20.47;;
10452;SDS011;5274;51.992;8.518;2023-03-04T15:37:39;20.77;;;19.37;;
10452;SDS011;5274;51.992;8.518;2023-03-04T15:40:13;24.47;;;22.87;;
10452;SDS011;5274;51.992;8.518;2023-03-04T15:42:39;26.13;;;23.93;;
10452;SDS011;5274;51.992;8.518;2023-03-04T15:45:25;22.63;;;20.83;;
10452;SDS011;5274;51.992;8.518;2023-03-04T15:47:52;23.10;;;21.13;;
10452;SDS011;5274;51.992;8.518;2023-03-04T15:50:18;21.13;;;19.40;;
10452;SDS011;5274;51.992;8.518;2023-03-04T15:52:44;23.27;;;21.77;;
10452;SDS011;5274;51.992;8.518;2023-03-04T15:55:14;21.07;;;19.70;;
10452;SDS011;5274;51.992;8.518;2023-03-04T15:57:41;21.83;;;20.00;;
10452;SDS011;5274;51.992;8.518;2023-03-04T16:00:10;25.13;;;23.53;;
10452;SDS011;5274;51.992;8.518;2023-03-04T16:02:36;23.70;;;22.03;;
10452;SDS011;5274;51.992;8.518;2023-03-04T16:05:02;25.17;;;23.67;;
10452;SDS011;5274;51.992;8.518;2023-03-04T16:07:28;21.77;;;20.47;;
10452;SDS011;5274;51.992;8.518;2023-03-04T16:09:55;22.47;;;21.10;;
10452;SDS011;5274;51.992;8.518;2023-03-04T16:12:22;22.20;;;20.87;;
10452;SDS011;5274;51.992;8.518;2023-03-04T16:14:48;21.23;;;19.97;;
10452;SDS011;5274;51.992;8.518;2023-03-04T16:17:15;14.33;;;13.43;;
10452;SDS011;5274;51.992;8.518;2023-03-04T16:19:41;10.53;;;9.50;;
10452;SDS011;5274;51.992;8.518;2023-03-04T16:22:09;7.83;;;5.87;;
10452;SDS011;5274;51.992;8.518;2023-03-04T16:24:35;6.63;;;5.67;;
10452;SDS011;5274;51.992;8.518;2023-03-04T16:27:01;8.13;;;4.37;;
10452;SDS011;5274;51.992;8.518;2023-03-04T16:29:27;5.83;;;5.00;;
10452;SDS011;5274;51.992;8.518;2023-03-04T16:31:53;5.60;;;5.00;;
10452;SDS011;5274;51.992;8.518;2023-03-04T16:34:19;6.53;;;5.20;;
10452;SDS011;5274;51.992;8.518;2023-03-04T16:36:45;7.37;;;6.00;;